createdAt,value
2022-08-17T00:01:51.294Z,7.10
2022-08-17T00:04:20.655Z,13.85
2022-08-17T00:06:49.473Z,7.45
2022-08-17T00:09:19.445Z,6.68
2022-08-17T00:12:34.883Z,8.30
2022-08-17T00:14:37.667Z,10.07
2022-08-17T00:17:06.686Z,7.07
2022-08-17T00:19:34.451Z,6.85
2022-08-17T00:22:32.942Z,7.00
2022-08-17T00:24:52.322Z,12.90
2022-08-17T00:27:20.348Z,7.20
2022-08-17T00:29:48.187Z,7.60
2022-08-17T00:33:13.691Z,7.25
2022-08-17T00:35:06.431Z,8.10
2022-08-17T00:37:34.553Z,6.78
2022-08-17T00:40:04.157Z,8.95
2022-08-17T00:42:32.174Z,7.65
2022-08-17T00:45:00.637Z,6.88
2022-08-17T00:47:28.371Z,7.90
2022-08-17T00:49:56.547Z,7.35
2022-08-17T00:52:28.717Z,10.25
2022-08-17T00:54:57.232Z,8.23
2022-08-17T00:57:30.709Z,6.65
2022-08-17T01:00:03.787Z,6.07
2022-08-17T01:02:43.078Z,7.78
2022-08-17T01:05:15.767Z,7.57
2022-08-17T01:07:44.561Z,12.65
2022-08-17T01:10:58.194Z,7.95
2022-08-17T01:13:04.287Z,7.05
2022-08-17T01:15:34.825Z,8.93
2022-08-17T01:18:03.037Z,9.68
2022-08-17T01:20:30.857Z,8.02
2022-08-17T01:23:12.817Z,7.00
2022-08-17T01:25:50.817Z,8.70
2022-08-17T01:28:33.424Z,11.43
2022-08-17T01:31:09.224Z,7.25
2022-08-17T01:33:37.920Z,6.55
2022-08-17T01:36:07.353Z,7.45
2022-08-17T01:38:38.563Z,6.93
2022-08-17T01:41:09.450Z,10.18
2022-08-17T01:43:43.190Z,7.35
2022-08-17T01:46:15.622Z,6.60
2022-08-17T01:48:47.694Z,6.32
2022-08-17T01:51:16.580Z,6.40
2022-08-17T01:53:49.567Z,9.80
2022-08-17T01:56:20.807Z,6.95
2022-08-17T01:58:49.207Z,7.20
2022-08-17T02:01:18.794Z,8.77
2022-08-17T02:03:59.143Z,7.88
2022-08-17T02:06:31.654Z,6.80
2022-08-17T02:09:25.512Z,7.43
2022-08-17T02:11:54.640Z,7.00
2022-08-17T02:14:23.129Z,6.35
2022-08-17T02:16:51.155Z,9.20
2022-08-17T02:19:19.835Z,6.78
2022-08-17T02:21:49.921Z,7.72
2022-08-17T02:25:00.952Z,7.00
2022-08-17T02:27:11.977Z,6.82
2022-08-17T02:29:39.993Z,7.30
2022-08-17T02:32:27.477Z,10.52
2022-08-17T02:34:57.509Z,7.32
2022-08-17T02:37:25.601Z,8.80
2022-08-17T02:39:56.819Z,8.20
2022-08-17T02:42:28.903Z,11.18
2022-08-17T02:44:56.901Z,12.75
2022-08-17T02:47:25.170Z,9.15
2022-08-17T02:49:55.536Z,10.27
2022-08-17T02:53:01.965Z,16.10
2022-08-17T02:55:16.831Z,7.90
2022-08-17T02:57:45.991Z,10.50
2022-08-17T03:00:18.045Z,16.48
2022-08-17T03:02:46.902Z,18.60
2022-08-17T03:05:18.277Z,11.30
2022-08-17T03:07:46.541Z,14.75
2022-08-17T03:10:16.506Z,10.70
2022-08-17T03:12:45.731Z,10.30
2022-08-17T03:15:16.199Z,13.80
2022-08-17T03:17:44.035Z,11.65
2022-08-17T03:20:13.767Z,12.82
2022-08-17T03:22:47.940Z,10.50
2022-08-17T03:25:30.129Z,10.55
2022-08-17T03:27:58.239Z,9.63
2022-08-17T03:30:27.200Z,9.30
2022-08-17T03:32:57.547Z,11.13
2022-08-17T03:35:28.013Z,12.80
2022-08-17T03:38:00.238Z,10.40
2022-08-17T03:40:58.107Z,8.68
2022-08-17T03:43:19.496Z,8.60
2022-08-17T03:46:04.994Z,8.27
2022-08-17T03:48:51.274Z,9.25
2022-08-17T03:51:41.311Z,8.55
2022-08-17T03:54:28.726Z,7.97
2022-08-17T03:57:06.886Z,7.90
2022-08-17T03:59:36.260Z,8.85
2022-08-17T04:02:09.328Z,7.82
2022-08-17T04:04:37.403Z,7.72
2022-08-17T04:07:05.719Z,8.55
2022-08-17T04:09:34.014Z,7.90
2022-08-17T04:12:04.759Z,8.65
2022-08-17T04:14:39.365Z,10.73
2022-08-17T04:17:21.178Z,10.00
2022-08-17T04:19:49.269Z,6.70
2022-08-17T04:22:31.938Z,8.60
2022-08-17T04:25:05.588Z,7.13
2022-08-17T04:27:34.759Z,8.55
2022-08-17T04:30:02.761Z,6.97
2022-08-17T04:33:02.297Z,8.85
2022-08-17T04:35:21.172Z,7.65
2022-08-17T04:37:49.258Z,8.25
2022-08-17T04:40:35.003Z,6.72
2022-08-17T04:45:34.128Z,7.55
2022-08-17T04:48:02.367Z,7.55
2022-08-17T04:50:30.132Z,7.82
2022-08-17T04:52:58.117Z,14.90
2022-08-17T04:55:26.222Z,7.38
2022-08-17T04:57:54.273Z,8.38
2022-08-17T05:00:25.743Z,7.25
2022-08-17T05:02:55.926Z,8.43
2022-08-17T05:05:26.271Z,7.60
2022-08-17T05:07:54.659Z,6.85
2022-08-17T05:10:22.859Z,9.07
2022-08-17T05:12:59.204Z,8.48
2022-08-17T05:15:29.764Z,8.27
2022-08-17T05:18:01.300Z,8.45
2022-08-17T05:20:29.998Z,8.38
2022-08-17T05:22:59.270Z,8.65
2022-08-17T05:25:32.752Z,9.75
2022-08-17T05:28:02.416Z,8.38
2022-08-17T05:30:31.859Z,10.13
2022-08-17T05:33:02.061Z,9.43
2022-08-17T05:35:33.534Z,11.52
2022-08-17T05:38:01.657Z,10.18
2022-08-17T05:40:32.870Z,11.13
2022-08-17T05:43:09.371Z,9.93
2022-08-17T05:45:55.873Z,9.95
2022-08-17T05:48:35.727Z,10.27
2022-08-17T05:51:17.092Z,11.10
2022-08-17T05:53:51.895Z,10.00
2022-08-17T05:56:29.475Z,8.55
2022-08-17T05:59:04.547Z,10.05
2022-08-17T06:01:42.164Z,8.45
2022-08-17T06:04:20.705Z,8.95
2022-08-17T06:06:55.143Z,8.93
2022-08-17T06:09:35.998Z,9.90
2022-08-17T06:12:21.990Z,9.73
2022-08-17T06:15:10.907Z,9.90
2022-08-17T06:17:41.091Z,10.55
2022-08-17T06:20:11.774Z,9.98
2022-08-17T06:22:47.057Z,9.68
2022-08-17T06:27:53.602Z,12.13
2022-08-17T06:30:25.085Z,10.15
2022-08-17T06:32:59.490Z,11.20
2022-08-17T06:35:35.803Z,9.07
2022-08-17T06:38:36.904Z,9.32
2022-08-17T06:43:56.225Z,10.13
2022-08-17T06:46:30.175Z,10.23
2022-08-17T06:49:12.259Z,11.40
2022-08-17T06:51:43.705Z,9.60
2022-08-17T06:54:20.663Z,10.30
2022-08-17T06:56:55.204Z,15.57
2022-08-17T06:59:54.176Z,10.95
2022-08-17T07:02:29.421Z,11.07
2022-08-17T07:05:14.178Z,14.90
2022-08-17T07:08:03.856Z,11.40
2022-08-17T07:10:39.119Z,10.63
2022-08-17T07:13:21.399Z,10.68
2022-08-17T07:15:56.811Z,11.57
2022-08-17T07:18:27.975Z,11.30
2022-08-17T07:21:04.745Z,11.40
2022-08-17T07:23:40.762Z,11.48
2022-08-17T07:26:10.117Z,11.43
2022-08-17T07:28:38.139Z,11.88
2022-08-17T07:31:06.998Z,11.30
2022-08-17T07:33:36.743Z,11.98
2022-08-17T07:36:06.350Z,10.65
2022-08-17T07:38:36.465Z,12.75
2022-08-17T07:41:07.653Z,16.08
2022-08-17T07:43:37.940Z,13.15
2022-08-17T07:46:32.644Z,11.52
2022-08-17T07:49:19.248Z,12.05
2022-08-17T07:52:24.155Z,16.83
2022-08-17T07:54:51.908Z,13.98
2022-08-17T07:57:40.810Z,12.75
2022-08-17T08:00:26.699Z,12.90
2022-08-17T08:03:26.215Z,12.18
2022-08-17T08:05:57.366Z,15.48
2022-08-17T08:08:33.753Z,13.93
2022-08-17T08:11:09.167Z,12.38
2022-08-17T08:13:42.414Z,14.27
2022-08-17T08:16:23.851Z,13.98
2022-08-17T08:18:56.804Z,24.25
2022-08-17T08:21:34.414Z,23.83
2022-08-17T08:24:17.437Z,20.25
2022-08-17T08:26:55.471Z,19.95
2022-08-17T08:29:32.667Z,19.77
2022-08-17T08:32:10.574Z,20.00
2022-08-17T08:35:01.525Z,21.95
2022-08-17T08:37:43.259Z,23.38
2022-08-17T08:40:33.813Z,25.83
2022-08-17T08:43:14.984Z,20.08
2022-08-17T08:45:51.629Z,20.83
2022-08-17T08:48:55.966Z,22.25
2022-08-17T08:51:37.309Z,23.90
2022-08-17T08:54:13.503Z,24.35
2022-08-17T08:57:19.487Z,28.90
2022-08-17T08:59:58.064Z,23.92
2022-08-17T09:02:47.424Z,24.33
2022-08-17T09:05:29.440Z,26.55
2022-08-17T09:08:06.124Z,22.08
2022-08-17T09:10:47.095Z,23.02
2022-08-17T09:13:23.348Z,22.85
2022-08-17T09:15:57.282Z,28.02
2022-08-17T09:21:22.601Z,29.60
2022-08-17T09:23:59.930Z,28.50
2022-08-17T09:26:32.347Z,28.20
2022-08-17T09:29:07.035Z,30.77
2022-08-17T09:31:48.815Z,27.73
2022-08-17T09:34:21.205Z,29.00
2022-08-17T09:36:57.173Z,30.48
2022-08-17T09:39:33.789Z,30.27
2022-08-17T09:42:07.740Z,27.13
2022-08-17T09:44:41.945Z,26.45
2022-08-17T09:47:17.194Z,23.95
2022-08-17T09:49:49.970Z,24.67
2022-08-17T09:52:22.347Z,22.98
2022-08-17T09:54:52.479Z,27.10
2022-08-17T09:57:32.136Z,25.98
2022-08-17T10:00:16.606Z,24.98
2022-08-17T10:03:08.354Z,21.77
2022-08-17T10:05:46.488Z,21.35
2022-08-17T10:08:25.560Z,20.98
2022-08-17T10:11:00.745Z,24.08
2022-08-17T10:13:37.045Z,21.63
2022-08-17T10:16:14.017Z,21.13
2022-08-17T10:18:51.738Z,21.13
2022-08-17T10:21:38.531Z,20.38
2022-08-17T10:24:31.099Z,18.50
2022-08-17T10:27:02.601Z,21.02
2022-08-17T10:29:48.974Z,15.93
2022-08-17T10:32:28.738Z,18.05
2022-08-17T10:35:25.937Z,15.43
2022-08-17T10:38:37.733Z,17.88
2022-08-17T10:41:17.969Z,14.20
2022-08-17T10:43:58.904Z,17.40
2022-08-17T10:47:04.085Z,16.88
2022-08-17T10:49:36.018Z,16.02
2022-08-17T10:52:26.961Z,14.68
2022-08-17T10:55:13.863Z,15.25
2022-08-17T10:57:44.761Z,14.80
2022-08-17T11:01:12.628Z,15.85
2022-08-17T11:03:54.721Z,16.52
2022-08-17T11:06:34.498Z,17.50
2022-08-17T11:09:25.457Z,16.48
2022-08-17T11:12:08.213Z,17.42
2022-08-17T11:14:54.286Z,16.67
2022-08-17T11:17:50.032Z,16.00
2022-08-17T11:20:56.597Z,14.70
2022-08-17T11:23:53.901Z,13.10
2022-08-17T11:26:26.915Z,11.35
2022-08-17T11:29:00.051Z,11.93
2022-08-17T11:31:38.990Z,12.27
2022-08-17T11:34:15.189Z,11.88
2022-08-17T11:37:11.038Z,11.50
2022-08-17T11:39:53.382Z,11.88
2022-08-17T11:42:38.655Z,10.18
2022-08-17T11:45:31.665Z,10.48
2022-08-17T11:48:29.196Z,10.20
2022-08-17T11:51:24.560Z,10.52
2022-08-17T11:54:31.294Z,9.65
2022-08-17T11:56:55.249Z,10.70
2022-08-17T11:59:55.241Z,11.30
2022-08-17T12:02:38.859Z,10.23
2022-08-17T12:05:42.064Z,11.07
2022-08-17T12:08:18.570Z,9.48
2022-08-17T12:11:09.765Z,9.73
2022-08-17T12:13:45.773Z,10.48
2022-08-17T12:16:16.392Z,9.30
2022-08-17T12:18:51.571Z,9.60
2022-08-17T12:23:58.524Z,10.95
2022-08-17T12:26:36.582Z,11.27
2022-08-17T12:29:38.676Z,10.52
2022-08-17T12:40:03.213Z,10.82
2022-08-17T12:42:37.244Z,11.20
2022-08-17T12:45:07.575Z,9.60
2022-08-17T12:47:37.839Z,9.68
2022-08-17T12:50:28.458Z,9.82
2022-08-17T12:53:01.898Z,10.50
2022-08-17T12:55:36.812Z,9.35
2022-08-17T12:58:13.991Z,8.00
2022-08-17T13:00:50.117Z,8.63
2022-08-17T13:03:21.148Z,8.13
2022-08-17T13:05:58.071Z,8.20
2022-08-17T13:08:29.765Z,8.13
2022-08-17T13:10:59.035Z,8.95
2022-08-17T13:13:28.501Z,8.85
2022-08-17T13:16:00.002Z,9.27
2022-08-17T13:18:41.885Z,9.52
2022-08-17T13:21:18.741Z,8.82
2022-08-17T13:23:57.031Z,8.20
2022-08-17T13:26:30.821Z,8.13
2022-08-17T13:29:00.394Z,8.88
2022-08-17T13:31:42.896Z,8.55
2022-08-17T13:34:38.705Z,8.82
2022-08-17T13:37:34.473Z,9.07
2022-08-17T13:40:25.744Z,8.55
2022-08-17T13:42:56.419Z,8.55
2022-08-17T13:45:50.712Z,8.27
2022-08-17T13:48:30.458Z,8.18
2022-08-17T13:51:18.051Z,8.40
2022-08-17T13:53:54.791Z,8.07
2022-08-17T13:56:37.877Z,8.88
2022-08-17T13:59:10.174Z,7.55
2022-08-17T14:01:40.811Z,8.15
2022-08-17T14:04:12.470Z,7.80
2022-08-17T14:06:53.197Z,9.38
2022-08-17T14:09:25.365Z,6.68
2022-08-17T14:11:55.048Z,7.13
2022-08-17T14:14:23.629Z,6.55
2022-08-17T14:16:51.835Z,7.05
2022-08-17T14:19:25.230Z,7.32
2022-08-17T14:21:56.484Z,7.00
2022-08-17T14:24:27.504Z,10.13
2022-08-17T14:26:55.932Z,12.57
2022-08-17T14:29:28.266Z,8.52
2022-08-17T14:31:57.314Z,7.68
2022-08-17T14:34:26.799Z,9.15
2022-08-17T14:36:54.660Z,9.27
2022-08-17T14:39:22.538Z,8.57
2022-08-17T14:41:50.587Z,7.88
2022-08-17T14:44:20.358Z,6.75
2022-08-17T14:46:52.314Z,7.00
2022-08-17T14:49:25.708Z,6.65
2022-08-17T14:51:58.801Z,7.30
2022-08-17T14:54:33.105Z,7.38
2022-08-17T14:57:22.184Z,7.65
2022-08-17T14:59:57.028Z,9.05
2022-08-17T15:02:29.471Z,7.50
2022-08-17T15:05:02.079Z,9.35
2022-08-17T15:07:32.517Z,7.25
2022-08-17T15:10:02.477Z,8.23
2022-08-17T15:12:34.306Z,7.85
2022-08-17T15:15:04.801Z,7.35
2022-08-17T15:17:44.519Z,7.57
2022-08-17T15:20:17.256Z,7.65
2022-08-17T15:22:51.662Z,7.13
2022-08-17T15:25:22.431Z,7.30
2022-08-17T15:27:55.655Z,7.82
2022-08-17T15:30:30.139Z,7.95
2022-08-17T15:32:59.143Z,7.75
2022-08-17T15:35:34.292Z,7.80
2022-08-17T15:38:12.018Z,7.07
2022-08-17T15:40:44.541Z,6.75
2022-08-17T15:43:16.073Z,7.00
2022-08-17T15:45:44.182Z,8.32
2022-08-17T15:48:16.497Z,8.60
2022-08-17T15:50:49.398Z,7.65
2022-08-17T15:53:23.289Z,7.93
2022-08-17T15:55:54.610Z,8.65
2022-08-17T15:58:30.070Z,7.00
2022-08-17T16:01:16.535Z,10.25
2022-08-17T16:04:04.302Z,9.63
2022-08-17T16:06:35.561Z,8.02
2022-08-17T16:09:05.145Z,8.07
2022-08-17T16:11:33.237Z,9.27
2022-08-17T16:14:01.316Z,8.88
2022-08-17T16:16:31.457Z,8.35
2022-08-17T16:18:59.441Z,9.13
2022-08-17T16:21:29.460Z,8.93
2022-08-17T16:24:02.391Z,15.23
2022-08-17T16:26:33.579Z,14.43
2022-08-17T16:29:04.931Z,15.23
2022-08-17T16:31:33.047Z,15.35
2022-08-17T16:34:17.240Z,12.38
2022-08-17T16:39:26.602Z,12.82
2022-08-17T16:41:58.279Z,15.30
2022-08-17T16:44:32.600Z,15.60
2022-08-17T16:47:02.433Z,13.23
2022-08-17T16:49:35.466Z,16.33
2022-08-17T16:52:05.601Z,18.85
2022-08-17T16:54:33.464Z,18.15
2022-08-17T16:57:05.382Z,14.00
2022-08-17T16:59:40.781Z,12.98
2022-08-17T17:02:19.856Z,12.35
2022-08-17T17:04:53.508Z,10.90
2022-08-17T17:07:45.607Z,14.27
2022-08-17T17:10:16.842Z,13.00
2022-08-17T17:13:02.071Z,13.93
2022-08-17T17:15:42.861Z,15.13
2022-08-17T17:18:14.870Z,15.43
2022-08-17T17:20:48.931Z,15.70
2022-08-17T17:23:29.249Z,15.80
2022-08-17T17:26:04.560Z,16.75
2022-08-17T17:33:48.011Z,17.58
2022-08-17T17:36:25.217Z,15.45
2022-08-17T17:38:55.916Z,16.23
2022-08-17T17:41:30.220Z,15.05
2022-08-17T17:44:03.722Z,18.00
2022-08-17T17:46:37.834Z,16.55
2022-08-17T17:49:07.091Z,16.13
2022-08-17T17:52:09.361Z,16.00
2022-08-17T17:54:44.325Z,15.68
2022-08-17T17:57:22.265Z,15.68
2022-08-17T17:59:59.613Z,17.15
2022-08-17T18:02:52.232Z,17.00
2022-08-17T18:05:38.836Z,18.50
2022-08-17T18:08:32.118Z,17.35
2022-08-17T18:11:13.492Z,18.35
2022-08-17T18:13:56.806Z,19.25
2022-08-17T18:16:32.085Z,19.70
2022-08-17T18:19:00.992Z,19.52
2022-08-17T18:21:36.180Z,19.38
2022-08-17T18:26:55.533Z,19.73
2022-08-17T18:29:45.271Z,21.80
2022-08-17T18:32:36.675Z,22.27
2022-08-17T18:35:30.771Z,19.05
2022-08-17T18:38:20.550Z,19.98
2022-08-17T18:40:59.394Z,20.67
2022-08-17T18:43:36.466Z,19.35
2022-08-17T18:46:28.569Z,21.05
2022-08-17T18:49:01.548Z,18.63
2022-08-17T18:51:40.525Z,20.60
2022-08-17T18:54:16.667Z,25.75
2022-08-17T18:59:36.944Z,24.77
2022-08-17T19:02:32.454Z,26.73
2022-08-17T19:05:13.260Z,27.63
2022-08-17T19:07:42.751Z,25.27
2022-08-17T19:10:25.137Z,25.77
2022-08-17T19:13:00.881Z,22.65
2022-08-17T19:15:42.701Z,19.92
2022-08-17T19:18:16.003Z,23.65
2022-08-17T19:20:51.727Z,20.90
2022-08-17T19:23:25.365Z,22.45
2022-08-17T19:25:58.614Z,20.30
2022-08-17T19:28:30.558Z,21.65
2022-08-17T19:31:02.805Z,20.63
2022-08-17T19:33:32.513Z,22.02
2022-08-17T19:36:08.511Z,22.60
2022-08-17T19:38:45.735Z,21.73
2022-08-17T19:41:21.819Z,22.33
2022-08-17T19:44:06.993Z,22.13
2022-08-17T19:46:49.832Z,23.00
2022-08-17T19:49:34.498Z,22.33
2022-08-17T19:52:28.935Z,22.23
2022-08-17T19:55:01.564Z,21.73
2022-08-17T19:57:42.769Z,21.00
2022-08-17T20:00:14.759Z,23.33
2022-08-17T20:02:50.587Z,22.77
2022-08-17T20:05:24.854Z,22.67
2022-08-17T20:08:02.147Z,22.23
2022-08-17T20:10:38.515Z,22.02
2022-08-17T20:13:10.996Z,23.08
2022-08-17T20:15:42.197Z,22.42
2022-08-17T20:18:18.524Z,22.58
2022-08-17T20:20:56.481Z,22.35
2022-08-17T20:23:50.463Z,22.35
2022-08-17T20:26:23.242Z,20.70
2022-08-17T20:29:11.347Z,21.80
2022-08-17T20:31:45.895Z,22.00
2022-08-17T20:34:36.803Z,23.00
2022-08-17T20:37:08.841Z,22.17
2022-08-17T20:39:42.627Z,21.83
2022-08-17T20:42:29.248Z,23.83
2022-08-17T20:44:59.201Z,24.33
2022-08-17T20:47:30.010Z,22.58
2022-08-17T20:50:03.263Z,21.40
2022-08-17T20:52:50.749Z,21.25
2022-08-17T20:55:56.088Z,22.50
2022-08-17T20:58:47.539Z,22.23
2022-08-17T21:01:24.388Z,22.55
2022-08-17T21:03:54.129Z,22.23
2022-08-17T21:06:25.480Z,20.25
2022-08-17T21:08:58.599Z,21.88
2022-08-17T21:12:03.034Z,23.65
2022-08-17T21:14:56.115Z,22.88
2022-08-17T21:17:42.107Z,23.40
2022-08-17T21:20:25.250Z,21.88
2022-08-17T21:23:21.053Z,23.63
2022-08-17T21:26:02.491Z,20.92
2022-08-17T21:29:01.344Z,21.50
2022-08-17T21:31:34.877Z,22.83
2022-08-17T21:34:31.775Z,22.77
2022-08-17T21:37:30.419Z,22.73
2022-08-17T21:40:01.087Z,21.00
2022-08-17T21:42:32.076Z,24.80
2022-08-17T21:45:10.800Z,25.73
2022-08-17T21:47:47.489Z,26.58
2022-08-17T21:50:19.659Z,26.63
2022-08-17T21:52:49.566Z,32.75
2022-08-17T21:55:23.381Z,27.40
2022-08-17T21:57:55.419Z,27.17
2022-08-17T22:00:40.794Z,25.08
2022-08-17T22:03:23.934Z,24.25
2022-08-17T22:05:51.984Z,25.08
2022-08-17T22:08:22.339Z,28.25
2022-08-17T22:10:51.529Z,27.10
2022-08-17T22:13:24.359Z,26.20
2022-08-17T22:16:15.496Z,25.58
2022-08-17T22:18:58.078Z,25.63
2022-08-17T22:21:26.485Z,26.73
2022-08-17T22:24:06.380Z,26.95
2022-08-17T22:27:01.168Z,27.77
2022-08-17T22:30:02.248Z,24.45
2022-08-17T22:32:38.794Z,25.08
2022-08-17T22:35:32.838Z,27.35
2022-08-17T22:38:32.049Z,25.75
2022-08-17T22:41:26.188Z,25.17
2022-08-17T22:43:57.432Z,24.10
2022-08-17T22:46:26.926Z,23.98
2022-08-17T22:48:59.280Z,25.35
2022-08-17T22:51:30.787Z,24.42
2022-08-17T22:54:19.170Z,25.00
2022-08-17T22:57:15.269Z,26.70
2022-08-17T22:59:50.160Z,24.67
2022-08-17T23:02:27.139Z,27.17
2022-08-17T23:05:18.870Z,25.33
2022-08-17T23:07:48.090Z,25.90
2022-08-17T23:10:16.395Z,23.35
2022-08-17T23:12:44.149Z,24.50
2022-08-17T23:15:17.442Z,23.67
2022-08-17T23:17:45.527Z,24.00
2022-08-17T23:20:17.767Z,24.55
2022-08-17T23:22:52.194Z,24.30
2022-08-17T23:25:27.231Z,25.48
2022-08-17T23:27:55.470Z,24.05
2022-08-17T23:30:25.378Z,24.90
2022-08-17T23:32:54.375Z,26.50
2022-08-17T23:35:40.489Z,25.50
2022-08-17T23:38:09.823Z,23.33
2022-08-17T23:40:39.375Z,24.00
2022-08-17T23:43:24.723Z,23.33
2022-08-17T23:45:57.430Z,23.63
2022-08-17T23:48:28.466Z,25.48
2022-08-17T23:51:09.611Z,23.52
2022-08-17T23:53:42.135Z,25.30
2022-08-17T23:56:11.262Z,23.90
2022-08-17T23:58:40.290Z,24.50
